Terminal Aerodrome Forecast
Issued by NWS Tulsa, OK

Home | Current Version | Previous Version | Text Only | Print | Product List | Glossary On
Versions: 1 2 3 4 5 6 7 8 9 10 11 12 13 14 15 16 17 18
000
FTUS44 KTSA 212332
TAFFSM
TAF
KFSM 212332Z 2200/2224 15007KT P6SM FEW040 FEW250
     FM220400 07004KT P6SM FEW250
     FM221400 11008KT P6SM SCT025
     FM221800 16011KT P6SM SCT045=

USA.gov is the U.S. government's official web portal to all federal, state and local government web resources and services.